sensor_id;sensor_type;location;lat;lon;timestamp;temperature;humidity
10826;DHT22;5466;55.898;14.094;2023-08-20T00:00:39;16.10;99.90
10826;DHT22;5466;55.898;14.094;2023-08-20T00:02:42;16.10;99.90
10826;DHT22;5466;55.898;14.094;2023-08-20T00:04:45;16.10;99.90
10826;DHT22;5466;55.898;14.094;2023-08-20T00:06:47;16.10;99.90
10826;DHT22;5466;55.898;14.094;2023-08-20T00:08:48;16.10;99.90
10826;DHT22;5466;55.898;14.094;2023-08-20T00:10:48;16.00;99.90
10826;DHT22;5466;55.898;14.094;2023-08-20T00:12:49;16.00;99.90
10826;DHT22;5466;55.898;14.094;2023-08-20T00:15:01;16.00;99.90
10826;DHT22;5466;55.898;14.094;2023-08-20T00:17:05;16.00;99.90
10826;DHT22;5466;55.898;14.094;2023-08-20T00:19:06;16.00;99.90
10826;DHT22;5466;55.898;14.094;2023-08-20T00:21:08;16.00;99.90
10826;DHT22;5466;55.898;14.094;2023-08-20T00:23:09;16.00;99.90
10826;DHT22;5466;55.898;14.094;2023-08-20T00:25:10;16.10;99.90
10826;DHT22;5466;55.898;14.094;2023-08-20T00:27:11;16.10;99.90
10826;DHT22;5466;55.898;14.094;2023-08-20T00:29:12;16.10;99.90
10826;DHT22;5466;55.898;14.094;2023-08-20T00:31:12;16.10;99.90
10826;DHT22;5466;55.898;14.094;2023-08-20T00:33:13;16.10;99.90
10826;DHT22;5466;55.898;14.094;2023-08-20T00:35:14;16.10;99.90
10826;DHT22;5466;55.898;14.094;2023-08-20T00:37:15;16.00;99.90
10826;DHT22;5466;55.898;14.094;2023-08-20T00:39:15;16.00;99.90
10826;DHT22;5466;55.898;14.094;2023-08-20T00:41:16;16.00;99.90
10826;DHT22;5466;55.898;14.094;2023-08-20T00:43:16;16.00;99.90
10826;DHT22;5466;55.898;14.094;2023-08-20T00:45:17;16.10;99.90
10826;DHT22;5466;55.898;14.094;2023-08-20T00:47:19;16.10;99.90
10826;DHT22;5466;55.898;14.094;2023-08-20T00:49:20;16.10;99.90
10826;DHT22;5466;55.898;14.094;2023-08-20T00:51:22;16.00;99.90
10826;DHT22;5466;55.898;14.094;2023-08-20T00:53:23;16.00;99.90
10826;DHT22;5466;55.898;14.094;2023-08-20T00:55:23;16.00;99.90
10826;DHT22;5466;55.898;14.094;2023-08-20T00:57:24;16.00;99.90
10826;DHT22;5466;55.898;14.094;2023-08-20T00:59:27;16.10;99.90
10826;DHT22;5466;55.898;14.094;2023-08-20T01:01:27;16.00;99.90
10826;DHT22;5466;55.898;14.094;2023-08-20T01:03:28;16.00;99.90
10826;DHT22;5466;55.898;14.094;2023-08-20T01:05:32;16.00;99.90
10826;DHT22;5466;55.898;14.094;2023-08-20T01:08:04;16.00;99.90
10826;DHT22;5466;55.898;14.094;2023-08-20T01:12:06;16.00;99.90
10826;DHT22;5466;55.898;14.094;2023-08-20T01:14:15;16.00;99.90
10826;DHT22;5466;55.898;14.094;2023-08-20T01:16:16;16.00;99.90
10826;DHT22;5466;55.898;14.094;2023-08-20T01:18:17;16.00;99.90
10826;DHT22;5466;55.898;14.094;2023-08-20T01:20:18;16.00;99.90
10826;DHT22;5466;55.898;14.094;2023-08-20T01:29:23;15.90;99.90
10826;DHT22;5466;55.898;14.094;2023-08-20T01:31:25;15.90;99.90
10826;DHT22;5466;55.898;14.094;2023-08-20T01:33:27;15.80;99.90
10826;DHT22;5466;55.898;14.094;2023-08-20T01:35:28;15.80;99.90
10826;DHT22;5466;55.898;14.094;2023-08-20T01:37:29;15.80;99.90
10826;DHT22;5466;55.898;14.094;2023-08-20T01:39:29;15.80;99.90
10826;DHT22;5466;55.898;14.094;2023-08-20T01:41:30;15.80;99.90
10826;DHT22;5466;55.898;14.094;2023-08-20T01:43:31;15.70;99.90
10826;DHT22;5466;55.898;14.094;2023-08-20T01:45:31;15.70;99.90
10826;DHT22;5466;55.898;14.094;2023-08-20T01:47:32;15.70;99.90
10826;DHT22;5466;55.898;14.094;2023-08-20T01:49:33;15.70;99.90
10826;DHT22;5466;55.898;14.094;2023-08-20T01:51:34;15.70;99.90
10826;DHT22;5466;55.898;14.094;2023-08-20T01:53:36;15.70;99.90
10826;DHT22;5466;55.898;14.094;2023-08-20T01:55:37;15.60;99.90
10826;DHT22;5466;55.898;14.094;2023-08-20T01:57:38;15.60;99.90
10826;DHT22;5466;55.898;14.094;2023-08-20T01:59:38;15.60;99.90
10826;DHT22;5466;55.898;14.094;2023-08-20T02:01:39;15.50;99.90
10826;DHT22;5466;55.898;14.094;2023-08-20T02:03:40;15.60;99.90
10826;DHT22;5466;55.898;14.094;2023-08-20T02:05:40;15.50;99.90
10826;DHT22;5466;55.898;14.094;2023-08-20T02:07:41;15.50;99.90
10826;DHT22;5466;55.898;14.094;2023-08-20T02:09:41;15.50;99.90
10826;DHT22;5466;55.898;14.094;2023-08-20T02:11:42;15.50;99.90
10826;DHT22;5466;55.898;14.094;2023-08-20T02:13:43;15.50;99.90
10826;DHT22;5466;55.898;14.094;2023-08-20T02:15:44;15.50;99.90
10826;DHT22;5466;55.898;14.094;2023-08-20T02:17:44;15.50;99.90
10826;DHT22;5466;55.898;14.094;2023-08-20T02:19:45;15.50;99.90
10826;DHT22;5466;55.898;14.094;2023-08-20T02:21:46;15.40;99.90
10826;DHT22;5466;55.898;14.094;2023-08-20T02:23:46;15.40;99.90
10826;DHT22;5466;55.898;14.094;2023-08-20T02:25:47;15.40;99.90
10826;DHT22;5466;55.898;14.094;2023-08-20T02:27:48;15.40;99.90
10826;DHT22;5466;55.898;14.094;2023-08-20T02:29:49;15.40;99.90
10826;DHT22;5466;55.898;14.094;2023-08-20T02:31:49;15.40;99.90
10826;DHT22;5466;55.898;14.094;2023-08-20T02:33:50;15.40;99.90
10826;DHT22;5466;55.898;14.094;2023-08-20T02:35:51;15.40;99.90
10826;DHT22;5466;55.898;14.094;2023-08-20T02:37:51;15.40;99.90
10826;DHT22;5466;55.898;14.094;2023-08-20T02:39:52;15.40;99.90
10826;DHT22;5466;55.898;14.094;2023-08-20T02:41:52;15.40;99.90
10826;DHT22;5466;55.898;14.094;2023-08-20T02:43:53;15.40;99.90
10826;DHT22;5466;55.898;14.094;2023-08-20T02:45:54;15.50;99.90
10826;DHT22;5466;55.898;14.094;2023-08-20T02:47:54;15.50;99.90
10826;DHT22;5466;55.898;14.094;2023-08-20T02:49:55;15.50;99.90
10826;DHT22;5466;55.898;14.094;2023-08-20T02:51:55;15.50;99.90
10826;DHT22;5466;55.898;14.094;2023-08-20T02:53:56;15.50;99.90
10826;DHT22;5466;55.898;14.094;2023-08-20T02:55:56;15.60;99.90
10826;DHT22;5466;55.898;14.094;2023-08-20T02:57:57;15.60;99.90
10826;DHT22;5466;55.898;14.094;2023-08-20T02:59:58;15.70;99.90
10826;DHT22;5466;55.898;14.094;2023-08-20T03:01:58;15.60;99.90
10826;DHT22;5466;55.898;14.094;2023-08-20T03:03:59;15.60;99.90
10826;DHT22;5466;55.898;14.094;2023-08-20T03:05:59;15.60;99.90
10826;DHT22;5466;55.898;14.094;2023-08-20T03:08:00;15.60;99.90
10826;DHT22;5466;55.898;14.094;2023-08-20T03:10:01;15.60;99.90
10826;DHT22;5466;55.898;14.094;2023-08-20T03:12:03;15.60;99.90
10826;DHT22;5466;55.898;14.094;2023-08-20T03:14:04;15.70;99.90
10826;DHT22;5466;55.898;14.094;2023-08-20T03:16:04;15.70;99.90
10826;DHT22;5466;55.898;14.094;2023-08-20T03:18:05;15.60;99.90
10826;DHT22;5466;55.898;14.094;2023-08-20T03:20:06;15.60;99.90
10826;DHT22;5466;55.898;14.094;2023-08-20T03:22:08;15.60;99.90
10826;DHT22;5466;55.898;14.094;2023-08-20T03:24:08;15.60;99.90
10826;DHT22;5466;55.898;14.094;2023-08-20T03:26:09;15.60;99.90
10826;DHT22;5466;55.898;14.094;2023-08-20T03:28:10;15.60;99.90
10826;DHT22;5466;55.898;14.094;2023-08-20T03:30:10;15.70;99.90
10826;DHT22;5466;55.898;14.094;2023-08-20T03:32:11;15.60;99.90
10826;DHT22;5466;55.898;14.094;2023-08-20T03:34:12;15.60;99.90
10826;DHT22;5466;55.898;14.094;2023-08-20T03:36:12;15.60;99.90
10826;DHT22;5466;55.898;14.094;2023-08-20T03:38:13;15.60;99.90
10826;DHT22;5466;55.898;14.094;2023-08-20T03:40:13;15.60;99.90
10826;DHT22;5466;55.898;14.094;2023-08-20T03:42:15;15.60;99.90
10826;DHT22;5466;55.898;14.094;2023-08-20T03:44:15;15.60;99.90
10826;DHT22;5466;55.898;14.094;2023-08-20T03:46:16;15.60;99.90
10826;DHT22;5466;55.898;14.094;2023-08-20T03:48:17;15.60;99.90
10826;DHT22;5466;55.898;14.094;2023-08-20T03:50:17;15.60;99.90
10826;DHT22;5466;55.898;14.094;2023-08-20T03:52:18;15.70;99.90
10826;DHT22;5466;55.898;14.094;2023-08-20T03:54:19;15.60;99.90
10826;DHT22;5466;55.898;14.094;2023-08-20T03:56:19;15.60;99.90
10826;DHT22;5466;55.898;14.094;2023-08-20T03:58:20;15.60;99.90
10826;DHT22;5466;55.898;14.094;2023-08-20T04:00:20;15.60;99.90
10826;DHT22;5466;55.898;14.094;2023-08-20T04:02:21;15.60;99.90
10826;DHT22;5466;55.898;14.094;2023-08-20T04:04:22;15.60;99.90
10826;DHT22;5466;55.898;14.094;2023-08-20T04:06:23;15.70;99.90
10826;DHT22;5466;55.898;14.094;2023-08-20T04:08:23;15.60;99.90
10826;DHT22;5466;55.898;14.094;2023-08-20T04:10:24;15.60;99.90
10826;DHT22;5466;55.898;14.094;2023-08-20T04:12:24;15.60;99.90
10826;DHT22;5466;55.898;14.094;2023-08-20T04:14:25;15.60;99.90
10826;DHT22;5466;55.898;14.094;2023-08-20T04:16:26;15.60;99.90
10826;DHT22;5466;55.898;14.094;2023-08-20T04:18:26;15.60;99.90
10826;DHT22;5466;55.898;14.094;2023-08-20T04:20:27;15.60;99.90
10826;DHT22;5466;55.898;14.094;2023-08-20T04:22:27;15.60;99.90
10826;DHT22;5466;55.898;14.094;2023-08-20T04:24:30;15.60;99.90
10826;DHT22;5466;55.898;14.094;2023-08-20T04:26:31;15.60;99.90
10826;DHT22;5466;55.898;14.094;2023-08-20T04:28:32;15.70;99.90
10826;DHT22;5466;55.898;14.094;2023-08-20T04:30:34;15.70;99.90
10826;DHT22;5466;55.898;14.094;2023-08-20T04:32:35;15.60;99.90
10826;DHT22;5466;55.898;14.094;2023-08-20T04:34:36;15.60;99.90
10826;DHT22;5466;55.898;14.094;2023-08-20T04:36:36;15.70;99.90
10826;DHT22;5466;55.898;14.094;2023-08-20T04:38:37;15.60;99.90
10826;DHT22;5466;55.898;14.094;2023-08-20T04:40:37;15.70;99.90
10826;DHT22;5466;55.898;14.094;2023-08-20T04:42:38;15.70;99.90
10826;DHT22;5466;55.898;14.094;2023-08-20T04:44:38;15.70;99.90
10826;DHT22;5466;55.898;14.094;2023-08-20T04:46:39;15.70;99.90
10826;DHT22;5466;55.898;14.094;2023-08-20T04:48:39;15.70;99.90
10826;DHT22;5466;55.898;14.094;2023-08-20T04:50:40;15.70;99.90
10826;DHT22;5466;55.898;14.094;2023-08-20T04:52:41;15.70;99.90
10826;DHT22;5466;55.898;14.094;2023-08-20T04:54:41;15.70;99.90
10826;DHT22;5466;55.898;14.094;2023-08-20T04:56:42;15.70;99.90
10826;DHT22;5466;55.898;14.094;2023-08-20T04:58:42;15.70;99.90
10826;DHT22;5466;55.898;14.094;2023-08-20T05:00:43;15.80;99.90
10826;DHT22;5466;55.898;14.094;2023-08-20T05:02:44;15.80;99.90
10826;DHT22;5466;55.898;14.094;2023-08-20T05:04:45;15.90;99.90
10826;DHT22;5466;55.898;14.094;2023-08-20T05:06:45;15.80;99.90
10826;DHT22;5466;55.898;14.094;2023-08-20T05:08:46;15.80;99.90
10826;DHT22;5466;55.898;14.094;2023-08-20T05:10:46;15.80;99.90
10826;DHT22;5466;55.898;14.094;2023-08-20T05:12:47;15.80;99.90
10826;DHT22;5466;55.898;14.094;2023-08-20T05:14:47;15.80;99.90
10826;DHT22;5466;55.898;14.094;2023-08-20T05:16:48;15.70;99.90
10826;DHT22;5466;55.898;14.094;2023-08-20T05:18:49;15.70;99.90
10826;DHT22;5466;55.898;14.094;2023-08-20T05:20:49;15.70;99.90
10826;DHT22;5466;55.898;14.094;2023-08-20T05:22:50;15.80;99.90
10826;DHT22;5466;55.898;14.094;2023-08-20T05:24:50;15.80;99.90
10826;DHT22;5466;55.898;14.094;2023-08-20T05:27:14;15.80;99.90
10826;DHT22;5466;55.898;14.094;2023-08-20T05:29:16;15.90;99.90
10826;DHT22;5466;55.898;14.094;2023-08-20T05:31:17;16.00;99.90
10826;DHT22;5466;55.898;14.094;2023-08-20T05:33:17;16.00;99.90
10826;DHT22;5466;55.898;14.094;2023-08-20T05:35:18;16.00;99.90
10826;DHT22;5466;55.898;14.094;2023-08-20T05:37:18;16.10;99.90
10826;DHT22;5466;55.898;14.094;2023-08-20T05:39:19;16.20;99.90
10826;DHT22;5466;55.898;14.094;2023-08-20T05:41:19;16.30;99.90
10826;DHT22;5466;55.898;14.094;2023-08-20T05:43:20;16.30;99.90
10826;DHT22;5466;55.898;14.094;2023-08-20T05:45:21;16.30;99.90
10826;DHT22;5466;55.898;14.094;2023-08-20T05:47:21;16.30;99.90
10826;DHT22;5466;55.898;14.094;2023-08-20T05:49:22;16.40;99.90
10826;DHT22;5466;55.898;14.094;2023-08-20T05:51:22;16.40;99.90
10826;DHT22;5466;55.898;14.094;2023-08-20T05:53:23;16.50;99.90
10826;DHT22;5466;55.898;14.094;2023-08-20T05:55:24;16.40;99.90
10826;DHT22;5466;55.898;14.094;2023-08-20T05:57:24;16.50;99.90
10826;DHT22;5466;55.898;14.094;2023-08-20T05:59:25;16.50;99.90
10826;DHT22;5466;55.898;14.094;2023-08-20T06:01:26;16.50;99.90
10826;DHT22;5466;55.898;14.094;2023-08-20T06:03:26;16.50;99.90
10826;DHT22;5466;55.898;14.094;2023-08-20T06:05:27;16.50;99.90
10826;DHT22;5466;55.898;14.094;2023-08-20T06:07:27;16.60;99.90
10826;DHT22;5466;55.898;14.094;2023-08-20T06:09:28;16.60;99.90
10826;DHT22;5466;55.898;14.094;2023-08-20T06:11:29;16.60;99.90
10826;DHT22;5466;55.898;14.094;2023-08-20T06:13:30;16.70;99.90
10826;DHT22;5466;55.898;14.094;2023-08-20T06:15:30;16.70;99.90
10826;DHT22;5466;55.898;14.094;2023-08-20T06:17:31;16.80;99.90
10826;DHT22;5466;55.898;14.094;2023-08-20T06:19:32;16.90;99.90
10826;DHT22;5466;55.898;14.094;2023-08-20T06:21:32;16.90;99.90
10826;DHT22;5466;55.898;14.094;2023-08-20T06:23:33;17.00;99.90
10826;DHT22;5466;55.898;14.094;2023-08-20T06:25:33;16.90;99.90
10826;DHT22;5466;55.898;14.094;2023-08-20T06:27:34;17.00;99.90
10826;DHT22;5466;55.898;14.094;2023-08-20T06:29:35;17.00;99.90
10826;DHT22;5466;55.898;14.094;2023-08-20T06:31:35;17.00;99.90
10826;DHT22;5466;55.898;14.094;2023-08-20T06:33:36;17.00;99.90
10826;DHT22;5466;55.898;14.094;2023-08-20T06:35:37;17.00;99.90
10826;DHT22;5466;55.898;14.094;2023-08-20T06:37:40;17.10;99.90
10826;DHT22;5466;55.898;14.094;2023-08-20T06:39:41;17.20;99.90
10826;DHT22;5466;55.898;14.094;2023-08-20T06:41:41;17.30;99.90
10826;DHT22;5466;55.898;14.094;2023-08-20T06:43:42;17.20;99.90
10826;DHT22;5466;55.898;14.094;2023-08-20T06:45:43;17.20;99.90
10826;DHT22;5466;55.898;14.094;2023-08-20T06:47:43;17.30;99.90
10826;DHT22;5466;55.898;14.094;2023-08-20T06:49:44;17.50;99.90
10826;DHT22;5466;55.898;14.094;2023-08-20T06:51:44;17.60;99.90
10826;DHT22;5466;55.898;14.094;2023-08-20T06:53:45;17.70;99.90
10826;DHT22;5466;55.898;14.094;2023-08-20T06:55:46;17.80;99.90
10826;DHT22;5466;55.898;14.094;2023-08-20T06:57:46;17.80;99.90
10826;DHT22;5466;55.898;14.094;2023-08-20T06:59:47;17.80;99.90
10826;DHT22;5466;55.898;14.094;2023-08-20T07:01:48;17.90;99.90
10826;DHT22;5466;55.898;14.094;2023-08-20T07:03:48;17.90;99.90
10826;DHT22;5466;55.898;14.094;2023-08-20T07:05:49;17.90;99.90
10826;DHT22;5466;55.898;14.094;2023-08-20T07:07:50;17.90;99.90
10826;DHT22;5466;55.898;14.094;2023-08-20T07:09:50;17.90;99.90
10826;DHT22;5466;55.898;14.094;2023-08-20T07:11:51;17.80;99.90
10826;DHT22;5466;55.898;14.094;2023-08-20T07:13:51;18.00;99.90
10826;DHT22;5466;55.898;14.094;2023-08-20T07:15:52;18.10;99.90
10826;DHT22;5466;55.898;14.094;2023-08-20T07:17:53;18.20;99.90
10826;DHT22;5466;55.898;14.094;2023-08-20T07:19:53;18.20;99.90
10826;DHT22;5466;55.898;14.094;2023-08-20T07:21:55;18.20;99.90
10826;DHT22;5466;55.898;14.094;2023-08-20T07:23:56;18.20;99.90
10826;DHT22;5466;55.898;14.094;2023-08-20T07:26:10;18.30;99.90
10826;DHT22;5466;55.898;14.094;2023-08-20T07:28:12;18.40;99.90
10826;DHT22;5466;55.898;14.094;2023-08-20T07:30:13;18.60;99.90
10826;DHT22;5466;55.898;14.094;2023-08-20T07:32:13;18.80;99.90
10826;DHT22;5466;55.898;14.094;2023-08-20T07:34:14;18.90;99.90
10826;DHT22;5466;55.898;14.094;2023-08-20T07:36:16;18.90;99.90
10826;DHT22;5466;55.898;14.094;2023-08-20T07:38:17;19.00;99.90
10826;DHT22;5466;55.898;14.094;2023-08-20T07:40:18;19.00;99.90
10826;DHT22;5466;55.898;14.094;2023-08-20T07:42:18;19.00;99.90
10826;DHT22;5466;55.898;14.094;2023-08-20T07:44:19;19.00;99.90
10826;DHT22;5466;55.898;14.094;2023-08-20T07:46:19;19.10;99.90
10826;DHT22;5466;55.898;14.094;2023-08-20T07:48:20;19.10;99.90
10826;DHT22;5466;55.898;14.094;2023-08-20T07:50:20;19.10;99.90
10826;DHT22;5466;55.898;14.094;2023-08-20T07:52:21;19.20;99.90
10826;DHT22;5466;55.898;14.094;2023-08-20T07:54:22;19.20;99.90
10826;DHT22;5466;55.898;14.094;2023-08-20T07:56:22;19.00;99.90
10826;DHT22;5466;55.898;14.094;2023-08-20T07:58:23;19.10;99.90
10826;DHT22;5466;55.898;14.094;2023-08-20T08:00:24;19.10;99.90
10826;DHT22;5466;55.898;14.094;2023-08-20T08:02:24;19.10;99.90
10826;DHT22;5466;55.898;14.094;2023-08-20T08:04:25;19.20;99.90
10826;DHT22;5466;55.898;14.094;2023-08-20T08:06:25;19.20;99.90
10826;DHT22;5466;55.898;14.094;2023-08-20T08:08:26;19.30;99.90
10826;DHT22;5466;55.898;14.094;2023-08-20T08:10:27;19.40;99.90
10826;DHT22;5466;55.898;14.094;2023-08-20T08:12:27;19.50;99.90
10826;DHT22;5466;55.898;14.094;2023-08-20T08:14:28;19.60;99.90
10826;DHT22;5466;55.898;14.094;2023-08-20T08:16:29;19.70;99.90
10826;DHT22;5466;55.898;14.094;2023-08-20T08:18:29;19.70;99.90
10826;DHT22;5466;55.898;14.094;2023-08-20T08:20:30;19.60;99.90
10826;DHT22;5466;55.898;14.094;2023-08-20T08:22:31;19.70;99.90
10826;DHT22;5466;55.898;14.094;2023-08-20T08:24:31;20.00;99.90
10826;DHT22;5466;55.898;14.094;2023-08-20T08:26:34;20.10;99.90
10826;DHT22;5466;55.898;14.094;2023-08-20T08:28:35;20.40;99.90
10826;DHT22;5466;55.898;14.094;2023-08-20T08:30:37;20.50;99.90
10826;DHT22;5466;55.898;14.094;2023-08-20T08:32:38;20.50;99.90
10826;DHT22;5466;55.898;14.094;2023-08-20T08:34:38;20.40;99.90
10826;DHT22;5466;55.898;14.094;2023-08-20T08:36:39;20.20;99.90
10826;DHT22;5466;55.898;14.094;2023-08-20T08:38:39;20.30;99.90
10826;DHT22;5466;55.898;14.094;2023-08-20T08:40:41;20.40;99.90
10826;DHT22;5466;55.898;14.094;2023-08-20T08:42:43;20.60;99.90
10826;DHT22;5466;55.898;14.094;2023-08-20T08:44:48;20.80;99.90
10826;DHT22;5466;55.898;14.094;2023-08-20T08:46:49;21.10;99.90
10826;DHT22;5466;55.898;14.094;2023-08-20T08:48:51;21.30;99.90
10826;DHT22;5466;55.898;14.094;2023-08-20T08:50:52;21.40;99.90
10826;DHT22;5466;55.898;14.094;2023-08-20T08:52:53;21.30;99.90
10826;DHT22;5466;55.898;14.094;2023-08-20T08:54:55;21.40;99.90
10826;DHT22;5466;55.898;14.094;2023-08-20T08:56:56;21.50;99.90
10826;DHT22;5466;55.898;14.094;2023-08-20T08:58:56;21.50;99.90
10826;DHT22;5466;55.898;14.094;2023-08-20T09:00:57;21.50;99.90
10826;DHT22;5466;55.898;14.094;2023-08-20T09:02:58;21.60;99.90
10826;DHT22;5466;55.898;14.094;2023-08-20T09:04:59;21.70;99.90
10826;DHT22;5466;55.898;14.094;2023-08-20T09:07:00;21.70;99.90
10826;DHT22;5466;55.898;14.094;2023-08-20T09:09:04;21.80;99.90
10826;DHT22;5466;55.898;14.094;2023-08-20T09:11:07;21.80;99.90
10826;DHT22;5466;55.898;14.094;2023-08-20T09:13:07;21.70;99.90
10826;DHT22;5466;55.898;14.094;2023-08-20T09:15:11;21.70;99.90
10826;DHT22;5466;55.898;14.094;2023-08-20T09:17:12;21.80;99.90
10826;DHT22;5466;55.898;14.094;2023-08-20T09:19:13;21.90;99.90
10826;DHT22;5466;55.898;14.094;2023-08-20T09:21:14;22.00;99.90
10826;DHT22;5466;55.898;14.094;2023-08-20T09:23:14;22.00;99.90
10826;DHT22;5466;55.898;14.094;2023-08-20T09:25:15;22.10;99.90
10826;DHT22;5466;55.898;14.094;2023-08-20T09:27:17;22.10;99.90
10826;DHT22;5466;55.898;14.094;2023-08-20T09:29:18;21.70;99.90
10826;DHT22;5466;55.898;14.094;2023-08-20T09:31:18;21.80;99.90
10826;DHT22;5466;55.898;14.094;2023-08-20T09:33:19;21.90;99.90
10826;DHT22;5466;55.898;14.094;2023-08-20T09:35:19;21.90;99.90
10826;DHT22;5466;55.898;14.094;2023-08-20T09:37:21;22.10;99.90
10826;DHT22;5466;55.898;14.094;2023-08-20T09:39:22;22.00;99.90
10826;DHT22;5466;55.898;14.094;2023-08-20T09:41:23;22.10;99.90
10826;DHT22;5466;55.898;14.094;2023-08-20T09:43:25;22.00;99.90
10826;DHT22;5466;55.898;14.094;2023-08-20T09:45:29;21.90;99.90
10826;DHT22;5466;55.898;14.094;2023-08-20T09:47:34;21.70;99.90
10826;DHT22;5466;55.898;14.094;2023-08-20T09:49:38;21.50;99.90
10826;DHT22;5466;55.898;14.094;2023-08-20T09:51:40;21.50;99.90
10826;DHT22;5466;55.898;14.094;2023-08-20T09:53:51;21.50;99.90
10826;DHT22;5466;55.898;14.094;2023-08-20T09:55:56;21.70;99.90
10826;DHT22;5466;55.898;14.094;2023-08-20T09:58:02;21.80;99.90
10826;DHT22;5466;55.898;14.094;2023-08-20T10:00:06;21.60;99.90
10826;DHT22;5466;55.898;14.094;2023-08-20T10:02:12;21.80;99.90
10826;DHT22;5466;55.898;14.094;2023-08-20T10:04:14;21.80;99.90
10826;DHT22;5466;55.898;14.094;2023-08-20T10:06:16;21.80;99.90
10826;DHT22;5466;55.898;14.094;2023-08-20T10:08:18;21.90;99.90
10826;DHT22;5466;55.898;14.094;2023-08-20T10:10:19;21.90;99.90
10826;DHT22;5466;55.898;14.094;2023-08-20T10:12:20;22.10;99.90
10826;DHT22;5466;55.898;14.094;2023-08-20T10:14:22;22.00;99.90
10826;DHT22;5466;55.898;14.094;2023-08-20T10:16:24;22.00;99.90
10826;DHT22;5466;55.898;14.094;2023-08-20T10:18:24;22.00;99.90
10826;DHT22;5466;55.898;14.094;2023-08-20T10:20:29;22.20;99.90
10826;DHT22;5466;55.898;14.094;2023-08-20T10:22:41;22.40;99.90
10826;DHT22;5466;55.898;14.094;2023-08-20T10:24:47;22.50;99.90
10826;DHT22;5466;55.898;14.094;2023-08-20T10:27:07;22.70;99.90
10826;DHT22;5466;55.898;14.094;2023-08-20T10:29:45;22.80;99.90
10826;DHT22;5466;55.898;14.094;2023-08-20T10:31:46;22.70;99.90
10826;DHT22;5466;55.898;14.094;2023-08-20T10:33:49;22.90;99.90
10826;DHT22;5466;55.898;14.094;2023-08-20T10:35:50;22.90;99.90
10826;DHT22;5466;55.898;14.094;2023-08-20T10:38:04;22.90;99.90
10826;DHT22;5466;55.898;14.094;2023-08-20T10:40:05;22.60;99.90
10826;DHT22;5466;55.898;14.094;2023-08-20T10:44:15;22.90;99.90
10826;DHT22;5466;55.898;14.094;2023-08-20T10:46:23;22.90;99.90
10826;DHT22;5466;55.898;14.094;2023-08-20T10:48:24;22.80;99.90
10826;DHT22;5466;55.898;14.094;2023-08-20T10:50:29;22.70;99.90
10826;DHT22;5466;55.898;14.094;2023-08-20T10:52:30;22.80;99.90
10826;DHT22;5466;55.898;14.094;2023-08-20T10:54:31;22.70;99.90
10826;DHT22;5466;55.898;14.094;2023-08-20T10:56:45;22.60;99.90
10826;DHT22;5466;55.898;14.094;2023-08-20T10:58:47;22.40;99.90
10826;DHT22;5466;55.898;14.094;2023-08-20T11:01:20;22.10;99.90
10826;DHT22;5466;55.898;14.094;2023-08-20T11:03:21;22.10;99.90
10826;DHT22;5466;55.898;14.094;2023-08-20T11:05:22;21.90;99.90
10826;DHT22;5466;55.898;14.094;2023-08-20T11:07:24;21.50;99.90
10826;DHT22;5466;55.898;14.094;2023-08-20T11:09:29;21.50;99.90
10826;DHT22;5466;55.898;14.094;2023-08-20T11:11:30;21.60;99.90
10826;DHT22;5466;55.898;14.094;2023-08-20T11:13:32;21.40;99.90
10826;DHT22;5466;55.898;14.094;2023-08-20T11:15:33;21.30;99.90
10826;DHT22;5466;55.898;14.094;2023-08-20T11:17:43;21.30;99.90
10826;DHT22;5466;55.898;14.094;2023-08-20T11:19:44;21.40;99.90
10826;DHT22;5466;55.898;14.094;2023-08-20T11:21:44;21.40;99.90
10826;DHT22;5466;55.898;14.094;2023-08-20T11:23:46;21.40;99.90
10826;DHT22;5466;55.898;14.094;2023-08-20T11:25:47;21.40;99.90
10826;DHT22;5466;55.898;14.094;2023-08-20T11:27:48;21.30;99.90
10826;DHT22;5466;55.898;14.094;2023-08-20T11:29:52;21.20;99.90
10826;DHT22;5466;55.898;14.094;2023-08-20T11:31:54;21.20;99.90
10826;DHT22;5466;55.898;14.094;2023-08-20T11:33:57;21.30;99.90
10826;DHT22;5466;55.898;14.094;2023-08-20T11:35:57;21.80;99.90
10826;DHT22;5466;55.898;14.094;2023-08-20T11:37:58;22.40;99.90
10826;DHT22;5466;55.898;14.094;2023-08-20T11:39:59;22.80;99.90
10826;DHT22;5466;55.898;14.094;2023-08-20T11:41:59;22.90;99.90
10826;DHT22;5466;55.898;14.094;2023-08-20T11:44:02;23.20;99.90
10826;DHT22;5466;55.898;14.094;2023-08-20T11:46:03;23.20;99.90
10826;DHT22;5466;55.898;14.094;2023-08-20T11:48:04;22.90;99.90
10826;DHT22;5466;55.898;14.094;2023-08-20T11:50:09;22.90;99.90
10826;DHT22;5466;55.898;14.094;2023-08-20T11:52:11;22.60;99.90
10826;DHT22;5466;55.898;14.094;2023-08-20T11:54:14;22.50;99.90
10826;DHT22;5466;55.898;14.094;2023-08-20T11:56:15;22.50;99.90
10826;DHT22;5466;55.898;14.094;2023-08-20T11:58:18;22.50;99.90
10826;DHT22;5466;55.898;14.094;2023-08-20T12:00:27;22.50;99.90
10826;DHT22;5466;55.898;14.094;2023-08-20T12:02:28;22.40;99.90
10826;DHT22;5466;55.898;14.094;2023-08-20T12:04:30;22.30;99.90
10826;DHT22;5466;55.898;14.094;2023-08-20T12:06:31;22.30;99.90
10826;DHT22;5466;55.898;14.094;2023-08-20T12:08:37;22.20;99.90
10826;DHT22;5466;55.898;14.094;2023-08-20T12:10:42;22.30;99.90
10826;DHT22;5466;55.898;14.094;2023-08-20T12:12:43;22.40;99.90
10826;DHT22;5466;55.898;14.094;2023-08-20T12:14:44;22.40;99.90
10826;DHT22;5466;55.898;14.094;2023-08-20T12:16:44;22.40;99.90
10826;DHT22;5466;55.898;14.094;2023-08-20T12:18:46;22.30;99.90
10826;DHT22;5466;55.898;14.094;2023-08-20T12:20:47;22.30;99.90
10826;DHT22;5466;55.898;14.094;2023-08-20T12:22:47;22.20;99.90
10826;DHT22;5466;55.898;14.094;2023-08-20T12:24:48;22.20;99.90
10826;DHT22;5466;55.898;14.094;2023-08-20T12:26:52;22.10;99.90
10826;DHT22;5466;55.898;14.094;2023-08-20T12:28:53;22.10;99.90
10826;DHT22;5466;55.898;14.094;2023-08-20T12:30:54;22.40;99.90
10826;DHT22;5466;55.898;14.094;2023-08-20T12:32:54;22.60;99.90
10826;DHT22;5466;55.898;14.094;2023-08-20T12:34:55;22.80;99.90
10826;DHT22;5466;55.898;14.094;2023-08-20T12:36:55;23.00;99.90
10826;DHT22;5466;55.898;14.094;2023-08-20T12:38:56;23.00;99.90
10826;DHT22;5466;55.898;14.094;2023-08-20T12:40:57;22.90;99.90
10826;DHT22;5466;55.898;14.094;2023-08-20T12:42:57;23.10;99.90
10826;DHT22;5466;55.898;14.094;2023-08-20T12:44:58;22.80;99.90
10826;DHT22;5466;55.898;14.094;2023-08-20T12:46:58;22.90;99.90
10826;DHT22;5466;55.898;14.094;2023-08-20T12:48:59;22.80;99.90
10826;DHT22;5466;55.898;14.094;2023-08-20T12:50:59;22.80;99.90
10826;DHT22;5466;55.898;14.094;2023-08-20T12:53:00;22.70;99.90
10826;DHT22;5466;55.898;14.094;2023-08-20T12:55:01;22.50;99.90
10826;DHT22;5466;55.898;14.094;2023-08-20T12:57:03;22.10;99.90
10826;DHT22;5466;55.898;14.094;2023-08-20T12:59:03;21.90;99.90